Time;durP1;ratioP1;P1;durP2;ratioP2;P2;SDS_P1;SDS_P2;PMS_P1;PMS_P2;Temp;Humidity;BMP_temperature;BMP_pressure;BME280_temperature;BME280_humidity;BME280_pressure;Samples;Min_cycle;Max_cycle;Signal;HPM_P1;HPM_P2
2022/01/08 00:01:17;;;;;;;;;;;;;;;5.09;100.00;98325.94;5069465;28;19924;-76
2022/01/08 00:03:44;;;;;;;;;;;;;;;5.16;100.00;98314.81;5068555;28;19928;-76
2022/01/08 00:06:12;;;;;;;;;;;;;;;5.21;100.00;98313.59;5069809;28;19924;-76
2022/01/08 00:09:04;;;;;;;;;;;;;;;4.98;100.00;98314.13;5088266;28;19973;-76
2022/01/08 00:11:31;;;;;;;;;;;;;;;4.76;100.00;98311.88;5089778;28;20494;-75
2022/01/08 00:13:58;;;;;;;;;;;;;;;4.98;100.00;98305.03;5090707;28;20038;-75
2022/01/08 00:16:25;;;;;;;;;;;;;;;5.12;100.00;98313.25;5089892;28;19924;-76
2022/01/08 00:18:53;;;;;;;;;;;;;;;5.11;100.00;98318.00;5071682;28;19931;-76
2022/01/08 00:21:20;;;;;;;;;;;;;;;5.15;100.00;98313.22;5057448;28;19925;-75
2022/01/08 00:23:47;;;;;;;;;;;;;;;5.13;100.00;98303.75;5053026;28;19967;-76
2022/01/08 00:26:15;;;;;;;;;;;;;;;5.21;100.00;98295.00;5052056;28;20285;-75
2022/01/08 00:28:42;;;;;;;;;;;;;;;5.08;100.00;98291.13;5052556;28;19925;-75
2022/01/08 00:31:12;;;;;;;;;;;;;;;5.32;100.00;98300.44;5055787;28;19932;-76
2022/01/08 00:33:39;;;;;;;;;;;;;;;5.07;100.00;98295.06;5057160;28;20015;-75
2022/01/08 00:36:12;;;;;;;;;;;;;;;5.43;100.00;98290.09;5076399;28;19924;-85
2022/01/08 00:38:39;;;;;;;;;;;;;;;5.44;100.00;98284.13;5076021;28;19925;-78
2022/01/08 00:41:07;;;;;;;;;;;;;;;5.33;100.00;98280.66;5075763;28;19928;-77
2022/01/08 00:43:34;;;;;;;;;;;;;;;5.06;100.00;98287.16;5075861;28;19924;-77
2022/01/08 00:46:01;;;;;;;;;;;;;;;5.03;100.00;98286.00;5076357;28;19928;-76
2022/01/08 00:48:28;;;;;;;;;;;;;;;4.84;100.00;98275.47;5075615;28;19924;-76
2022/01/08 00:50:55;;;;;;;;;;;;;;;5.06;100.00;98265.81;5075701;28;20021;-77
2022/01/08 00:53:23;;;;;;;;;;;;;;;4.94;100.00;98258.00;5076958;28;20042;-77
2022/01/08 00:55:51;;;;;;;;;;;;;;;4.77;100.00;98256.13;5076642;28;19925;-76
2022/01/08 00:58:19;;;;;;;;;;;;;;;4.68;100.00;98269.63;5075658;28;19925;-76
2022/01/08 01:00:46;;;;;;;;;;;;;;;4.53;100.00;98259.81;5075226;28;20035;-76
2022/01/08 01:03:13;;;;;;;;;;;;;;;4.47;100.00;98260.66;5076684;28;19931;-76
2022/01/08 01:05:39;;;;;;;;;;;;;;;4.51;100.00;98266.94;5076595;28;19925;-76
2022/01/08 01:08:06;;;;;;;;;;;;;;;4.65;100.00;98262.13;5109175;28;20009;-77
2022/01/08 01:10:36;;;;;;;;;;;;;;;4.54;100.00;98249.53;5076329;28;20023;-77
2022/01/08 01:13:03;;;;;;;;;;;;;;;4.83;100.00;98254.50;5076512;28;20010;-76
2022/01/08 01:15:30;;;;;;;;;;;;;;;4.90;100.00;98257.25;5058494;28;19931;-77
2022/01/08 01:17:57;;;;;;;;;;;;;;;5.04;100.00;98246.03;5075377;28;19928;-76
2022/01/08 01:20:25;;;;;;;;;;;;;;;5.05;100.00;98241.31;5042156;28;19924;-76
2022/01/08 01:23:02;;;;;;;;;;;;;;;5.04;100.00;98234.97;5058637;28;19925;-77
2022/01/08 01:25:55;;;;;;;;;;;;;;;5.00;100.00;98234.22;5076363;28;19956;-77
2022/01/08 01:47:15;;;;;;;;;;;;;;;4.63;100.00;98214.72;5094936;28;19924;-77
2022/01/08 01:49:45;;;;;;;;;;;;;;;4.77;100.00;98211.84;5078656;28;19932;-77
2022/01/08 01:52:15;;;;;;;;;;;;;;;4.61;100.00;98206.03;5094921;28;19924;-77
2022/01/08 01:54:43;;;;;;;;;;;;;;;4.28;100.00;98203.03;5096112;28;19923;-77
2022/01/08 01:57:12;;;;;;;;;;;;;;;4.33;100.00;98195.09;5094570;28;19931;-77
2022/01/08 01:59:40;;;;;;;;;;;;;;;4.29;100.00;98194.34;5077859;28;19924;-77
2022/01/08 02:02:07;;;;;;;;;;;;;;;4.18;100.00;98199.13;5094850;28;20368;-77
2022/01/08 02:04:35;;;;;;;;;;;;;;;4.12;100.00;98197.97;5094561;28;19924;-76
2022/01/08 02:07:02;;;;;;;;;;;;;;;4.27;100.00;98190.41;5094689;28;19931;-77
2022/01/08 02:09:32;;;;;;;;;;;;;;;4.38;100.00;98197.47;5077738;28;19964;-77
2022/01/08 02:12:04;;;;;;;;;;;;;;;4.56;100.00;98184.31;5095319;28;19935;-77
2022/01/08 02:14:38;;;;;;;;;;;;;;;4.56;100.00;98167.72;5093576;28;20017;-76
2022/01/08 02:17:18;;;;;;;;;;;;;;;4.49;100.00;98161.44;5126496;27;20024;-76
2022/01/08 02:19:45;;;;;;;;;;;;;;;4.53;100.00;98163.00;5077532;28;20412;-76
2022/01/08 02:22:15;;;;;;;;;;;;;;;4.57;100.00;98160.19;5093733;28;19925;-76
2022/01/08 02:24:43;;;;;;;;;;;;;;;4.45;100.00;98168.97;5093850;28;19937;-76
2022/01/08 02:27:11;;;;;;;;;;;;;;;4.57;100.00;98166.53;5077288;28;19977;-76
2022/01/08 02:29:38;;;;;;;;;;;;;;;4.70;100.00;98159.31;5095425;28;19928;-76
2022/01/08 02:32:08;;;;;;;;;;;;;;;5.03;100.00;98149.56;5094222;28;20240;-76
2022/01/08 02:34:36;;;;;;;;;;;;;;;5.31;100.00;98146.53;5095273;28;20019;-76
2022/01/08 02:37:04;;;;;;;;;;;;;;;4.86;100.00;98136.66;5094077;28;19967;-76
2022/01/08 02:39:38;;;;;;;;;;;;;;;4.79;100.00;98129.19;5077130;28;19924;-76
2022/01/08 02:42:06;;;;;;;;;;;;;;;4.76;100.00;98123.69;5094932;28;19998;-76
2022/01/08 02:44:33;;;;;;;;;;;;;;;4.93;100.00;98115.25;5094028;28;19924;-76
2022/01/08 02:47:01;;;;;;;;;;;;;;;5.06;100.00;98104.44;5094038;28;20359;-76
2022/01/08 02:49:31;;;;;;;;;;;;;;;5.12;100.00;98113.88;5077220;28;20346;-76
2022/01/08 02:51:58;;;;;;;;;;;;;;;5.39;100.00;98107.25;5056154;28;20019;-76
2022/01/08 02:54:25;;;;;;;;;;;;;;;5.56;100.00;98092.44;5040309;28;20418;-76
2022/01/08 02:56:52;;;;;;;;;;;;;;;5.31;100.00;98083.63;5073200;28;20272;-76
2022/01/08 02:59:20;;;;;;;;;;;;;;;5.21;100.00;98078.97;5073333;28;19928;-76
2022/01/08 03:01:47;;;;;;;;;;;;;;;5.31;100.00;98078.09;5056871;28;19931;-76
2022/01/08 03:04:14;;;;;;;;;;;;;;;5.17;100.00;98077.44;5073404;28;20387;-76
2022/01/08 03:06:42;;;;;;;;;;;;;;;5.34;100.00;98071.72;5074409;28;19946;-76
2022/01/08 03:09:10;;;;;;;;;;;;;;;5.54;100.00;98052.50;5056746;28;19931;-76
2022/01/08 03:11:41;;;;;;;;;;;;;;;5.30;100.00;98048.03;5073163;28;19925;-76
2022/01/08 03:14:08;;;;;;;;;;;;;;;5.08;100.00;98030.88;5074416;28;20030;-76
2022/01/08 03:16:35;;;;;;;;;;;;;;;5.21;100.00;98034.66;5040219;28;19925;-76
2022/01/08 03:19:10;;;;;;;;;;;;;;;5.53;100.00;98031.50;5074380;28;19925;-76
2022/01/08 03:21:42;;;;;;;;;;;;;;;5.47;100.00;98020.13;5090509;28;19924;-76
2022/01/08 03:24:10;;;;;;;;;;;;;;;5.45;100.00;98003.13;5092974;28;19967;-77
2022/01/08 03:26:37;;;;;;;;;;;;;;;5.54;100.00;98003.41;5126648;27;20371;-76
2022/01/08 03:29:04;;;;;;;;;;;;;;;5.46;100.00;98007.47;5093184;28;19931;-76
2022/01/08 03:31:32;;;;;;;;;;;;;;;5.52;100.00;97994.72;5092796;28;20321;-76
2022/01/08 03:34:00;;;;;;;;;;;;;;;5.56;100.00;97997.44;5076388;28;20434;-76
2022/01/08 03:36:28;;;;;;;;;;;;;;;5.63;100.00;97989.06;5092827;28;20427;-76
2022/01/08 03:38:55;;;;;;;;;;;;;;;5.47;100.00;97992.41;5092847;28;19928;-76
2022/01/08 03:41:22;;;;;;;;;;;;;;;5.77;100.00;97994.38;5092921;28;19973;-76
2022/01/08 03:43:49;;;;;;;;;;;;;;;5.39;100.00;97985.38;5076269;28;20375;-76
2022/01/08 03:46:19;;;;;;;;;;;;;;;5.61;100.00;97974.81;5126373;27;19925;-76
2022/01/08 03:51:35;;;;;;;;;;;;;;;5.77;100.00;97965.91;5093959;28;19959;-76
2022/01/08 03:54:02;;;;;;;;;;;;;;;6.05;100.00;97946.06;5075665;28;20019;-77
2022/01/08 03:56:29;;;;;;;;;;;;;;;6.30;100.00;97949.25;5075788;28;19924;-77
2022/01/08 03:58:56;;;;;;;;;;;;;;;6.23;100.00;97943.81;5092797;28;19931;-77
2022/01/08 04:01:23;;;;;;;;;;;;;;;6.11;100.00;97947.16;5075997;28;19947;-76
2022/01/08 04:03:50;;;;;;;;;;;;;;;6.08;100.00;97942.47;5095367;28;20367;-77
2022/01/08 04:06:17;;;;;;;;;;;;;;;5.22;100.00;97919.94;5098000;28;19931;-76
2022/01/08 04:08:44;;;;;;;;;;;;;;;5.11;100.00;97930.38;5097790;28;20025;-76
2022/01/08 04:11:11;;;;;;;;;;;;;;;4.29;100.00;97906.75;5079941;28;20275;-76
2022/01/08 04:13:41;;;;;;;;;;;;;;;5.16;100.00;97910.53;5079742;28;19931;-76
2022/01/08 04:16:17;;;;;;;;;;;;;;;5.31;100.00;97917.44;5097762;28;19935;-76
2022/01/08 04:18:46;;;;;;;;;;;;;;;5.58;100.00;97906.38;5097974;28;19924;-76
2022/01/08 04:23:53;;;;;;;;;;;;;;;5.45;100.00;97892.31;5084923;28;19931;-77
2022/01/08 04:26:23;;;;;;;;;;;;;;;5.49;100.00;97890.28;5076052;28;19925;-76
2022/01/08 04:28:50;;;;;;;;;;;;;;;4.95;100.00;97872.03;5076175;28;19925;-76
2022/01/08 04:31:17;;;;;;;;;;;;;;;5.53;100.00;97857.75;5059472;28;19935;-77
2022/01/08 04:33:45;;;;;;;;;;;;;;;5.28;100.00;97857.34;5075931;28;19924;-76
2022/01/08 04:36:12;;;;;;;;;;;;;;;5.33;100.00;97837.47;5077206;28;19925;-76
2022/01/08 04:38:39;;;;;;;;;;;;;;;5.23;100.00;97832.91;5058845;28;20027;-76
2022/01/08 04:41:06;;;;;;;;;;;;;;;5.28;100.00;97829.66;5056976;28;19924;-76
2022/01/08 04:43:37;;;;;;;;;;;;;;;4.73;100.00;97817.34;5055781;28;19925;-76
2022/01/08 04:46:04;;;;;;;;;;;;;;;5.47;100.00;97823.41;5072083;28;19924;-77
2022/01/08 04:48:31;;;;;;;;;;;;;;;5.56;100.00;97817.34;5055794;28;20359;-77
2022/01/08 04:50:58;;;;;;;;;;;;;;;5.20;100.00;97806.03;5039128;28;19929;-76
2022/01/08 04:53:25;;;;;;;;;;;;;;;5.11;100.00;97803.00;5055378;28;19975;-76
2022/01/08 04:55:52;;;;;;;;;;;;;;;5.51;100.00;97793.66;5072262;28;19929;-76
2022/01/08 04:58:44;;;;;;;;;;;;;;;5.16;100.00;97771.28;5055611;28;20288;-76
2022/01/08 05:01:16;;;;;;;;;;;;;;;5.57;100.00;97766.28;5056654;28;19925;-76
2022/01/08 05:03:44;;;;;;;;;;;;;;;5.90;100.00;97765.34;5056726;28;19929;-77
2022/01/08 05:06:11;;;;;;;;;;;;;;;5.36;100.00;97767.41;5055183;28;19928;-77
2022/01/08 05:08:38;;;;;;;;;;;;;;;5.72;100.00;97752.97;5054765;28;19936;-77
2022/01/08 05:11:05;;;;;;;;;;;;;;;5.58;100.00;97757.56;5056459;28;20291;-76
2022/01/08 05:13:32;;;;;;;;;;;;;;;5.76;100.00;97753.66;5055294;28;19931;-77
2022/01/08 05:16:00;;;;;;;;;;;;;;;5.78;100.00;97756.81;5054286;28;20338;-77
2022/01/08 05:18:30;;;;;;;;;;;;;;;5.57;100.00;97746.88;5056303;28;20418;-77
2022/01/08 05:21:09;;;;;;;;;;;;;;;6.10;100.00;97734.84;5055750;28;19925;-77
2022/01/08 05:23:36;;;;;;;;;;;;;;;5.68;100.00;97736.38;5055003;28;19932;-77
2022/01/08 05:26:03;;;;;;;;;;;;;;;5.90;100.00;97714.66;5088398;28;20364;-77
2022/01/08 05:28:30;;;;;;;;;;;;;;;5.98;100.00;97722.41;5056228;28;19929;-78
2022/01/08 05:30:57;;;;;;;;;;;;;;;6.22;100.00;97726.69;5071381;28;19932;-77
2022/01/08 05:33:24;;;;;;;;;;;;;;;6.03;100.00;97707.28;5087987;28;19978;-77
2022/01/08 05:35:51;;;;;;;;;;;;;;;6.32;100.00;97694.38;5070974;28;19925;-77
2022/01/08 05:38:18;;;;;;;;;;;;;;;6.27;100.00;97700.44;5088197;28;19928;-77
2022/01/08 05:40:46;;;;;;;;;;;;;;;5.82;100.00;97685.47;5054653;28;20027;-77
2022/01/08 05:43:14;;;;;;;;;;;;;;;5.69;100.00;97676.22;5055560;28;19928;-77
2022/01/08 05:45:41;;;;;;;;;;;;;;;5.66;100.00;97658.47;5070946;28;20395;-78
2022/01/08 05:48:09;;;;;;;;;;;;;;;6.02;100.00;97650.25;5078018;28;20433;-77
2022/01/08 05:50:36;;;;;;;;;;;;;;;6.01;100.00;97643.94;5128625;27;20014;-77
2022/01/08 05:53:03;;;;;;;;;;;;;;;6.18;100.00;97630.91;5095793;28;19928;-77
2022/01/08 05:55:30;;;;;;;;;;;;;;;5.91;100.00;97633.06;5094540;28;19932;-77
2022/01/08 05:57:57;;;;;;;;;;;;;;;6.04;100.00;97620.91;5095584;28;19977;-78
2022/01/08 06:00:24;;;;;;;;;;;;;;;5.93;100.00;97631.41;5094522;28;20348;-77
2022/01/08 06:02:52;;;;;;;;;;;;;;;6.22;100.00;97614.97;5095831;28;19928;-78
2022/01/08 06:05:19;;;;;;;;;;;;;;;5.92;100.00;97606.91;5077176;28;20034;-77
2022/01/08 06:07:46;;;;;;;;;;;;;;;6.12;100.00;97602.13;5095541;28;19924;-77
2022/01/08 06:10:13;;;;;;;;;;;;;;;6.41;100.00;97600.25;5060986;28;20390;-77
2022/01/08 06:12:40;;;;;;;;;;;;;;;6.40;100.00;97596.72;5094239;28;19953;-77
2022/01/08 06:15:07;;;;;;;;;;;;;;;6.47;100.00;97590.22;5094365;28;20294;-77
2022/01/08 06:17:35;;;;;;;;;;;;;;;6.05;100.00;97560.66;5077658;28;19946;-77
2022/01/08 06:20:02;;;;;;;;;;;;;;;5.92;100.00;97562.53;5095058;28;20375;-77
2022/01/08 06:22:29;;;;;;;;;;;;;;;6.34;100.00;97559.63;5095423;28;19981;-77
2022/01/08 06:24:56;;;;;;;;;;;;;;;6.16;100.00;97544.59;5095254;28;20436;-77
2022/01/08 06:27:23;;;;;;;;;;;;;;;6.37;100.00;97544.88;5094365;28;19924;-78
2022/01/08 06:29:50;;;;;;;;;;;;;;;6.14;100.00;97533.13;5095340;28;19924;-77
2022/01/08 06:32:17;;;;;;;;;;;;;;;5.66;100.00;97511.59;5095273;28;19966;-77
2022/01/08 06:34:44;;;;;;;;;;;;;;;6.02;100.00;97512.41;5127837;27;19931;-77
2022/01/08 06:37:11;;;;;;;;;;;;;;;5.63;100.00;97478.41;5076895;28;19924;-77
2022/01/08 06:39:38;;;;;;;;;;;;;;;6.01;100.00;97476.81;5093875;28;19947;-77
2022/01/08 06:42:06;;;;;;;;;;;;;;;5.86;100.00;97461.72;5076890;28;19993;-77
2022/01/08 06:44:33;;;;;;;;;;;;;;;5.91;100.00;97475.06;5093347;28;19924;-77
2022/01/08 06:47:01;;;;;;;;;;;;;;;6.17;100.00;97457.41;5094299;28;19931;-77
2022/01/08 06:49:28;;;;;;;;;;;;;;;6.14;100.00;97447.16;5093498;28;20396;-77
2022/01/08 06:51:55;;;;;;;;;;;;;;;6.21;100.00;97439.47;5094242;28;19931;-76
2022/01/08 06:54:22;;;;;;;;;;;;;;;5.98;100.00;97427.75;5094077;28;19946;-76
2022/01/08 06:56:49;;;;;;;;;;;;;;;5.91;100.00;97422.41;5110443;28;20290;-77
2022/01/08 06:59:16;;;;;;;;;;;;;;;6.55;100.00;97422.34;5076534;28;19962;-77
2022/01/08 07:01:43;;;;;;;;;;;;;;;6.17;100.00;97418.56;5059925;28;20408;-77
2022/01/08 07:04:10;;;;;;;;;;;;;;;6.30;100.00;97400.78;5093232;28;19925;-77
2022/01/08 07:06:37;;;;;;;;;;;;;;;6.14;100.00;97392.50;5094610;28;19924;-77
2022/01/08 07:09:06;;;;;;;;;;;;;;;6.47;100.00;97393.22;5093380;28;19976;-77
2022/01/08 07:11:33;;;;;;;;;;;;;;;6.29;100.00;97385.38;5094875;28;20408;-76
2022/01/08 07:14:01;;;;;;;;;;;;;;;6.53;100.00;97374.84;5092509;28;20413;-77
2022/01/08 07:16:30;;;;;;;;;;;;;;;6.45;100.00;97373.50;5072773;28;19925;-76
2022/01/08 07:18:57;;;;;;;;;;;;;;;6.35;100.00;97378.09;5074137;28;20356;-77
2022/01/08 07:21:24;;;;;;;;;;;;;;;6.44;100.00;97372.69;5074094;28;20261;-77
2022/01/08 07:23:53;;;;;;;;;;;;;;;6.79;100.00;97354.31;5056166;28;19928;-77
2022/01/08 07:26:20;;;;;;;;;;;;;;;6.63;100.00;97340.50;5081363;28;20457;-77
2022/01/08 07:28:47;;;;;;;;;;;;;;;6.81;100.00;97351.88;5081452;28;20011;-77
2022/01/08 07:31:14;;;;;;;;;;;;;;;6.92;100.00;97344.78;5039523;28;20375;-77
2022/01/08 07:33:42;;;;;;;;;;;;;;;7.01;100.00;97335.84;5073815;28;19924;-77
2022/01/08 07:36:09;;;;;;;;;;;;;;;6.51;100.00;97311.47;5072811;28;19928;-77
2022/01/08 07:38:36;;;;;;;;;;;;;;;6.78;100.00;97311.13;5064886;28;19932;-77
2022/01/08 07:41:03;;;;;;;;;;;;;;;6.89;100.00;97314.38;5074096;28;19961;-77
2022/01/08 07:43:30;;;;;;;;;;;;;;;7.03;100.00;97288.94;5073769;28;19931;-77
2022/01/08 07:45:58;;;;;;;;;;;;;;;7.31;100.00;97274.97;5105610;28;19931;-77
2022/01/08 07:48:29;;;;;;;;;;;;;;;7.36;100.00;97276.44;5071346;28;21648;-78
2022/01/08 07:50:59;;;;;;;;;;;;;;;6.89;100.00;97269.97;5105470;28;19928;-78
2022/01/08 07:53:26;;;;;;;;;;;;;;;6.74;100.00;97255.69;5072590;28;19928;-78
2022/01/08 07:55:53;;;;;;;;;;;;;;;7.04;100.00;97243.31;5106354;28;19974;-78
2022/01/08 07:58:21;;;;;;;;;;;;;;;7.00;100.00;97229.53;5106178;28;20555;-85
2022/01/08 08:00:49;;;;;;;;;;;;;;;7.24;100.00;97218.84;5061744;28;19924;-78
2022/01/08 08:03:16;;;;;;;;;;;;;;;7.28;100.00;97214.75;5085214;28;19925;-78
2022/01/08 08:05:45;;;;;;;;;;;;;;;7.24;100.00;97214.09;5068516;28;19931;-78
2022/01/08 08:08:16;;;;;;;;;;;;;;;7.45;100.00;97190.41;5074211;28;20294;-78
2022/01/08 08:10:47;;;;;;;;;;;;;;;7.17;100.00;97194.09;5053953;28;19966;-78
2022/01/08 08:13:14;;;;;;;;;;;;;;;6.98;100.00;97193.09;5069148;28;19924;-78
2022/01/08 08:15:41;;;;;;;;;;;;;;;7.21;100.00;97173.31;5073252;28;19924;-78
2022/01/08 08:18:08;;;;;;;;;;;;;;;7.53;100.00;97177.81;5058170;28;20284;-78
2022/01/08 08:20:36;;;;;;;;;;;;;;;7.31;100.00;97151.97;5096039;28;20351;-78
2022/01/08 08:23:04;;;;;;;;;;;;;;;7.38;100.00;97162.84;5066930;28;20013;-78
2022/01/08 08:25:31;;;;;;;;;;;;;;;7.07;100.00;97157.09;5068357;28;19933;-78
2022/01/08 08:27:58;;;;;;;;;;;;;;;7.42;100.00;97157.97;5052908;28;19925;-78
2022/01/08 08:30:26;;;;;;;;;;;;;;;7.37;100.00;97139.06;5085494;28;20307;-78
2022/01/08 08:32:53;;;;;;;;;;;;;;;7.20;100.00;97126.53;5088104;28;19924;-78
2022/01/08 08:35:20;;;;;;;;;;;;;;;7.30;100.00;97133.75;5055304;28;19932;-78
2022/01/08 08:37:48;;;;;;;;;;;;;;;7.55;100.00;97125.34;5068018;28;19925;-78
2022/01/08 08:40:15;;;;;;;;;;;;;;;7.71;100.00;97129.97;5063339;28;19925;-78
2022/01/08 08:42:42;;;;;;;;;;;;;;;7.58;100.00;97093.88;5070063;28;20011;-78
2022/01/08 08:45:10;;;;;;;;;;;;;;;7.61;100.00;97087.41;5061683;28;19929;-78
2022/01/08 08:47:39;;;;;;;;;;;;;;;7.18;100.00;97082.56;5067585;28;19924;-78
2022/01/08 08:50:10;;;;;;;;;;;;;;;7.41;100.00;97064.72;5058682;28;19932;-78
2022/01/08 08:52:37;;;;;;;;;;;;;;;7.86;100.00;97081.72;5085416;28;19924;-78
2022/01/08 08:55:05;;;;;;;;;;;;;;;7.84;100.00;97067.53;5061053;28;19971;-78
2022/01/08 08:57:32;;;;;;;;;;;;;;;7.82;100.00;97060.84;5056394;28;20038;-91
2022/01/08 09:00:02;;;;;;;;;;;;;;;7.59;100.00;97062.06;5057142;28;19952;-79
2022/01/08 09:02:29;;;;;;;;;;;;;;;7.75;100.00;97053.56;5089115;28;19925;-79
2022/01/08 09:04:57;;;;;;;;;;;;;;;7.94;100.00;97049.66;5039845;28;20011;-79
2022/01/08 09:07:25;;;;;;;;;;;;;;;8.05;100.00;97033.34;5072967;28;19976;-79
2022/01/08 09:09:52;;;;;;;;;;;;;;;8.36;100.00;97025.03;5055573;28;19932;-79
2022/01/08 09:12:19;;;;;;;;;;;;;;;8.24;100.00;97018.34;5038596;28;19978;-79
2022/01/08 09:14:46;;;;;;;;;;;;;;;8.05;100.00;97011.13;5056517;28;19976;-77
2022/01/08 09:17:14;;;;;;;;;;;;;;;8.21;100.00;96985.09;5056656;28;19972;-79
2022/01/08 09:19:42;;;;;;;;;;;;;;;8.36;100.00;97002.78;5072191;28;20327;-79
2022/01/08 09:22:09;;;;;;;;;;;;;;;8.03;100.00;96991.31;5056715;28;20058;-78
2022/01/08 09:24:36;;;;;;;;;;;;;;;8.43;100.00;96991.38;5055277;28;20272;-78
2022/01/08 09:27:04;;;;;;;;;;;;;;;8.34;100.00;96978.22;5076606;28;19925;-79
2022/01/08 09:29:31;;;;;;;;;;;;;;;8.29;100.00;96964.88;5060149;28;19932;-79
2022/01/08 09:31:58;;;;;;;;;;;;;;;8.36;100.00;96947.91;5071342;28;20005;-79
2022/01/08 09:34:26;;;;;;;;;;;;;;;8.30;100.00;96951.75;5076167;28;19928;-79
2022/01/08 09:37:12;;;;;;;;;;;;;;;8.45;100.00;96944.38;5103356;28;20376;-80
2022/01/08 09:39:46;;;;;;;;;;;;;;;8.51;100.00;96926.59;5074822;28;19977;-80
2022/01/08 09:44:05;;;;;;;;;;;;;;;8.51;100.00;96915.47;4987729;28;20011;-79
2022/01/08 09:46:56;;;;;;;;;;;;;;;8.54;100.00;96897.09;4950124;28;19930;-79
2022/01/08 09:49:23;;;;;;;;;;;;;;;8.54;100.00;96891.53;4958781;28;19926;-79
2022/01/08 09:51:50;;;;;;;;;;;;;;;8.69;100.00;96881.34;4943043;28;19930;-78
2022/01/08 09:54:17;;;;;;;;;;;;;;;8.68;100.00;96885.34;4974511;28;19961;-79
2022/01/08 09:56:44;;;;;;;;;;;;;;;8.89;100.00;96868.47;4974622;28;20374;-79
2022/01/08 09:59:11;;;;;;;;;;;;;;;8.55;100.00;96863.22;4954317;28;19933;-76
2022/01/08 10:01:39;;;;;;;;;;;;;;;8.87;100.00;96851.50;4922536;28;20313;-76
2022/01/08 10:04:07;;;;;;;;;;;;;;;8.77;100.00;96844.34;4954624;28;19964;-77
2022/01/08 10:06:35;;;;;;;;;;;;;;;8.94;100.00;96855.94;4954031;28;19933;-78
2022/01/08 10:09:05;;;;;;;;;;;;;;;9.13;100.00;96840.78;4968043;28;19930;-75
2022/01/08 10:11:32;;;;;;;;;;;;;;;8.99;100.00;96839.41;4969344;28;19926;-75
2022/01/08 10:14:05;;;;;;;;;;;;;;;9.08;100.00;96831.03;4966262;28;19930;-75
2022/01/08 10:19:23;;;;;;;;;;;;;;;9.08;100.00;96813.53;4982851;28;19983;-75
2022/01/08 10:21:51;;;;;;;;;;;;;;;9.30;100.00;96808.53;5026317;28;19945;-75
2022/01/08 10:24:23;;;;;;;;;;;;;;;9.19;100.00;96803.44;5029529;28;20339;-75
2022/01/08 10:26:52;;;;;;;;;;;;;;;9.35;100.00;96788.41;5030590;28;19931;-76
2022/01/08 10:29:20;;;;;;;;;;;;;;;9.25;100.00;96777.75;5026010;28;20008;-75
2022/01/08 10:31:48;;;;;;;;;;;;;;;9.23;100.00;96774.66;5026273;28;19975;-77
2022/01/08 10:37:50;;;;;;;;;;;;;;;9.33;100.00;96759.47;5044464;28;20363;-76
2022/01/08 10:40:32;;;;;;;;;;;;;;;9.13;100.00;96748.84;5033104;28;19929;-77
2022/01/08 10:43:00;;;;;;;;;;;;;;;9.27;100.00;96739.81;5033882;28;19929;-76
2022/01/08 10:45:33;;;;;;;;;;;;;;;9.56;100.00;96726.06;5032327;28;19986;-78
2022/01/08 10:48:03;;;;;;;;;;;;;;;9.48;100.00;96718.53;5085964;28;20282;-77
2022/01/08 10:50:31;;;;;;;;;;;;;;;9.47;100.00;96697.44;5054666;28;19925;-76
2022/01/08 10:52:58;;;;;;;;;;;;;;;9.83;100.00;96695.22;5054538;28;19925;-75
2022/01/08 10:55:31;;;;;;;;;;;;;;;9.79;100.00;96689.06;5054274;28;19952;-74
2022/01/08 10:57:58;;;;;;;;;;;;;;;9.70;100.00;96699.50;5053387;28;19925;-75
2022/01/08 11:00:30;;;;;;;;;;;;;;;9.55;100.00;96677.13;5053354;28;19925;-74
2022/01/08 11:02:58;;;;;;;;;;;;;;;9.73;100.00;96679.81;5054350;28;20394;-75
2022/01/08 11:05:27;;;;;;;;;;;;;;;9.73;100.00;96674.25;5053233;28;19931;-75
2022/01/08 11:08:11;;;;;;;;;;;;;;;9.88;100.00;96655.53;5072779;28;19964;-74
2022/01/08 11:10:38;;;;;;;;;;;;;;;10.04;100.00;96662.72;5106595;28;19931;-75
2022/01/08 11:13:06;;;;;;;;;;;;;;;10.02;100.00;96656.81;5073419;28;20022;-75
2022/01/08 11:15:48;;;;;;;;;;;;;;;10.05;100.00;96641.91;5072756;28;20110;-75
2022/01/08 11:18:17;;;;;;;;;;;;;;;10.05;100.00;96647.50;5074172;28;19924;-76
2022/01/08 11:20:56;;;;;;;;;;;;;;;10.04;100.00;96649.50;5072956;28;19924;-78
2022/01/08 11:23:25;;;;;;;;;;;;;;;10.08;100.00;96652.16;5073822;28;20508;-76
2022/01/08 11:25:55;;;;;;;;;;;;;;;9.80;100.00;96643.19;5055130;28;20352;-75
2022/01/08 11:28:31;;;;;;;;;;;;;;;10.09;100.00;96645.31;5055964;28;20407;-76
2022/01/08 11:31:01;;;;;;;;;;;;;;;9.27;100.00;96713.97;5055014;28;19924;-74
2022/01/08 11:33:33;;;;;;;;;;;;;;;8.20;100.00;96722.81;5069858;28;19934;-75
2022/01/08 11:36:00;;;;;;;;;;;;;;;7.74;100.00;96701.03;5068134;28;19928;-76
2022/01/08 11:38:28;;;;;;;;;;;;;;;7.67;100.00;96690.97;5103866;28;20563;-75
2022/01/08 11:40:57;;;;;;;;;;;;;;;7.65;100.00;96668.41;5069624;28;20326;-74
2022/01/08 11:43:25;;;;;;;;;;;;;;;7.67;100.00;96668.72;5070737;28;20375;-76
2022/01/08 11:45:53;;;;;;;;;;;;;;;7.86;100.00;96659.16;5071769;28;20427;-76
2022/01/08 11:48:30;;;;;;;;;;;;;;;7.94;100.00;96657.63;5072510;28;19924;-76
2022/01/08 11:50:59;;;;;;;;;;;;;;;7.99;100.00;96673.69;5051767;28;20304;-76
2022/01/08 11:53:27;;;;;;;;;;;;;;;7.87;100.00;96674.63;5053383;28;19971;-75
2022/01/08 11:55:54;;;;;;;;;;;;;;;8.11;100.00;96672.00;5071334;28;19925;-75
2022/01/08 11:58:23;;;;;;;;;;;;;;;8.35;100.00;96679.25;5073052;28;20015;-76
2022/01/08 12:01:11;;;;;;;;;;;;;;;7.89;100.00;96686.03;5053794;28;20009;-76
2022/01/08 12:03:49;;;;;;;;;;;;;;;8.06;100.00;96684.50;5072884;28;19932;-76
2022/01/08 12:06:26;;;;;;;;;;;;;;;8.09;100.00;96671.69;5071553;28;19931;-76
2022/01/08 12:09:07;;;;;;;;;;;;;;;8.05;100.00;96663.50;5071604;28;20322;-75
2022/01/08 12:11:46;;;;;;;;;;;;;;;7.63;100.00;96631.22;5070179;28;19931;-74
2022/01/08 12:16:48;;;;;;;;;;;;;;;7.14;100.00;96651.50;5068030;28;19916;-78
2022/01/08 12:19:32;;;;;;;;;;;;;;;7.19;100.00;96658.44;5070994;28;19932;-77
2022/01/08 12:28:50;;;;;;;;;;;;;;;7.03;100.00;96665.03;5070889;28;19936;-78
2022/01/08 12:31:41;;;;;;;;;;;;;;;7.16;100.00;96648.25;5027741;28;19925;-79
2022/01/08 12:34:23;;;;;;;;;;;;;;;7.20;100.00;96635.00;5024200;28;19929;-77
2022/01/08 12:37:08;;;;;;;;;;;;;;;7.55;100.00;96616.84;5014869;28;19932;-78
2022/01/08 12:39:42;;;;;;;;;;;;;;;7.38;100.00;96596.13;5048662;28;19925;-77
2022/01/08 12:42:24;;;;;;;;;;;;;;;7.71;100.00;96580.41;5049230;28;19932;-77
2022/01/08 12:44:57;;;;;;;;;;;;;;;7.54;100.00;96578.41;5051291;28;19932;-77
2022/01/08 12:47:43;;;;;;;;;;;;;;;7.93;100.00;96572.69;5069711;28;19998;-76
2022/01/08 12:50:21;;;;;;;;;;;;;;;7.72;100.00;96565.28;5069814;28;20439;-76
2022/01/08 12:53:19;;;;;;;;;;;;;;;8.25;100.00;96569.25;5069839;28;19971;-77
2022/01/08 12:55:52;;;;;;;;;;;;;;;8.66;100.00;96557.34;5007158;28;20276;-77
2022/01/08 12:58:25;;;;;;;;;;;;;;;8.90;100.00;96554.63;5052162;28;19928;-77
2022/01/08 13:00:55;;;;;;;;;;;;;;;9.18;100.00;96547.63;5069248;28;19924;-77
2022/01/08 13:03:27;;;;;;;;;;;;;;;9.15;100.00;96557.72;5066634;28;20438;-77
2022/01/08 13:05:54;;;;;;;;;;;;;;;9.20;100.00;96550.72;5051409;28;19925;-76
2022/01/08 13:08:26;;;;;;;;;;;;;;;8.94;100.00;96558.78;5052274;28;20368;-77
2022/01/08 13:10:57;;;;;;;;;;;;;;;8.73;100.00;96557.03;5050925;28;20021;-76
2022/01/08 13:13:24;;;;;;;;;;;;;;;8.47;100.00;96558.66;5027569;28;19936;-77
2022/01/08 13:15:52;;;;;;;;;;;;;;;8.21;100.00;96556.72;5050564;28;19940;-77
2022/01/08 13:18:20;;;;;;;;;;;;;;;7.91;100.00;96558.47;5035260;28;19932;-77
2022/01/08 13:20:58;;;;;;;;;;;;;;;8.23;100.00;96566.16;5034896;28;19925;-78
2022/01/08 13:23:26;;;;;;;;;;;;;;;8.08;100.00;96554.13;5069679;28;19925;-78
2022/01/08 13:25:54;;;;;;;;;;;;;;;8.21;100.00;96567.84;5018064;28;19960;-78
2022/01/08 13:28:24;;;;;;;;;;;;;;;7.98;100.00;96574.81;5037988;28;19983;-77
2022/01/08 13:30:52;;;;;;;;;;;;;;;7.89;100.00;96555.38;5037908;28;20382;-76
2022/01/08 13:33:23;;;;;;;;;;;;;;;8.08;100.00;96568.03;5055571;28;19955;-76
2022/01/08 13:36:01;;;;;;;;;;;;;;;7.89;100.00;96555.38;5056033;28;19924;-76
2022/01/08 13:38:36;;;;;;;;;;;;;;;8.03;100.00;96578.97;5038530;28;19978;-77